Time;durP1;ratioP1;P1;durP2;ratioP2;P2;SDS_P1;SDS_P2;PMS_P1;PMS_P2;Temp;Humidity;BMP_temperature;BMP_pressure;BME280_temperature;BME280_humidity;BME280_pressure;Samples;Min_cycle;Max_cycle;Signal;HPM_P1;HPM_P2
2021/12/02 02:27:08;;;;;;;0.10;0.10;;;;;;;9.61;66.14;97362.66;5392078;23;21364;-75
2021/12/02 02:29:37;;;;;;;0.10;0.10;;;;;;;9.63;66.15;97352.75;4965840;28;20535;-68
2021/12/02 02:32:04;;;;;;;0.10;0.10;;;;;;;9.65;66.17;97356.06;4985037;28;20066;-74
2021/12/02 02:34:31;;;;;;;0.70;0.70;;;;;;;9.56;66.35;97359.72;4986805;28;20058;-68
2021/12/02 02:37:02;;;;;;;0.05;0.05;;;;;;;9.48;66.36;97362.44;4986704;28;20727;-68
2021/12/02 02:39:30;;;;;;;0.20;0.20;;;;;;;9.38;66.57;97352.94;4985748;28;20066;-69
2021/12/02 02:41:58;;;;;;;0.08;0.08;;;;;;;9.32;66.54;97352.81;4986918;28;20050;-69
2021/12/02 02:44:27;;;;;;;0.10;0.10;;;;;;;9.27;66.62;97350.69;4986454;28;20046;-68
2021/12/02 02:46:56;;;;;;;0.10;0.10;;;;;;;9.23;66.72;97357.31;4985218;28;20533;-75
2021/12/02 02:49:23;;;;;;;0.00;0.00;;;;;;;9.19;66.64;97358.66;4986878;28;20121;-76
2021/12/02 02:51:50;;;;;;;0.10;0.10;;;;;;;9.17;66.71;97350.13;4986538;28;20054;-69
2021/12/02 02:54:17;;;;;;;0.10;0.10;;;;;;;9.16;66.56;97349.31;4984454;28;20062;-71
2021/12/02 02:56:50;;;;;;;0.10;0.10;;;;;;;9.14;66.64;97353.91;4985810;28;20051;-78
2021/12/02 02:59:26;;;;;;;0.10;0.10;;;;;;;9.17;66.45;97355.38;4985375;28;20125;-71
2021/12/02 03:02:03;;;;;;;;;;;;;;;9.39;65.90;97340.59;4985836;28;20418;-70
2021/12/02 03:04:38;;;;;;;0.00;0.00;;;;;;;9.20;66.08;97336.63;4984322;28;19932;-70
2021/12/02 03:07:11;;;;;;;0.08;0.08;;;;;;;9.17;66.24;97331.69;4984756;28;20105;-70
2021/12/02 03:09:59;;;;;;;0.10;0.10;;;;;;;9.15;66.44;97328.41;4985690;28;20703;-70
2021/12/02 03:12:32;;;;;;;0.57;0.57;;;;;;;9.14;66.32;97329.38;4985618;28;20507;-72
2021/12/02 03:17:45;;;;;;;0.10;0.10;;;;;;;9.10;66.34;97343.91;4986357;28;20061;-71
2021/12/02 03:20:14;;;;;;;0.00;0.00;;;;;;;9.06;66.38;97358.41;4985536;28;20043;-73
2021/12/02 03:22:41;;;;;;;0.10;0.10;;;;;;;9.03;66.43;97343.75;4985259;28;20050;-66
2021/12/02 03:25:09;;;;;;;0.03;0.03;;;;;;;9.06;66.24;97353.97;4985416;28;20058;-71
2021/12/02 03:27:36;;;;;;;0.00;0.00;;;;;;;9.06;66.31;97353.97;4994218;28;20138;-68
2021/12/02 03:30:06;;;;;;;0.00;0.00;;;;;;;9.04;66.36;97344.59;5005190;28;20057;-69
2021/12/02 03:32:33;;;;;;;0.10;0.10;;;;;;;9.09;65.94;97352.78;5005468;28;20046;-67
2021/12/02 03:35:00;;;;;;;0.32;0.32;;;;;;;9.08;65.88;97357.25;5003669;28;20137;-70
2021/12/02 03:37:29;;;;;;;0.10;0.10;;;;;;;9.08;65.87;97349.34;5004489;28;20551;-70
2021/12/02 03:39:55;;;;;;;0.00;0.00;;;;;;;9.08;66.06;97364.31;5005628;28;20053;-70
2021/12/02 03:42:22;;;;;;;0.03;0.03;;;;;;;9.10;65.84;97367.59;5005010;28;20042;-67
2021/12/02 03:44:49;;;;;;;0.00;0.00;;;;;;;9.11;65.75;97372.69;5004917;28;20073;-72
2021/12/02 03:47:16;;;;;;;0.10;0.10;;;;;;;9.10;65.59;97370.22;5005679;28;20124;-69
2021/12/02 03:49:43;;;;;;;0.30;0.30;;;;;;;9.09;65.58;97381.75;5005382;28;20042;-67
2021/12/02 03:52:10;;;;;;;0.10;0.10;;;;;;;9.08;65.70;97383.56;5004414;28;20046;-68
2021/12/02 03:54:38;;;;;;;0.00;0.00;;;;;;;9.05;65.74;97380.47;5005654;28;20145;-73
2021/12/02 03:57:06;;;;;;;0.10;0.10;;;;;;;9.01;65.72;97387.06;5005700;28;20068;-69
2021/12/02 03:59:33;;;;;;;0.00;0.00;;;;;;;8.95;65.70;97389.38;5006796;28;20050;-71
2021/12/02 04:02:00;;;;;;;0.00;0.00;;;;;;;8.94;65.77;97392.19;5006814;28;20703;-72
2021/12/02 04:04:27;;;;;;;0.10;0.10;;;;;;;8.93;65.80;97403.69;5005913;28;20061;-70
2021/12/02 04:06:54;;;;;;;0.10;0.10;;;;;;;8.93;65.58;97401.91;5010110;28;20048;-69
2021/12/02 04:09:22;;;;;;;0.00;0.00;;;;;;;8.92;65.46;97410.78;5010782;28;20563;-69
2021/12/02 04:11:56;;;;;;;0.10;0.10;;;;;;;8.93;65.48;97409.81;5008433;28;20410;-68
2021/12/02 04:14:26;;;;;;;0.10;0.10;;;;;;;8.93;65.31;97422.97;5009125;28;20081;-74
2021/12/02 04:16:55;;;;;;;0.10;0.10;;;;;;;8.93;65.28;97417.69;5009492;28;20150;-68
2021/12/02 04:19:23;;;;;;;0.28;0.28;;;;;;;8.90;65.33;97419.84;5008143;28;20049;-77
2021/12/02 04:21:51;;;;;;;0.00;0.00;;;;;;;8.89;65.44;97413.75;5008799;28;20084;-70
2021/12/02 04:24:18;;;;;;;0.10;0.10;;;;;;;8.91;65.31;97409.16;5007971;28;20046;-67
2021/12/02 04:26:45;;;;;;;0.00;0.00;;;;;;;8.95;64.94;97418.34;5006927;28;20050;-68
2021/12/02 04:29:14;;;;;;;0.03;0.03;;;;;;;8.98;64.89;97422.44;5008590;28;20053;-69
2021/12/02 04:31:43;;;;;;;0.10;0.10;;;;;;;8.98;64.88;97420.66;5007827;28;20233;-69
2021/12/02 04:34:10;;;;;;;0.10;0.10;;;;;;;8.98;64.70;97430.34;5005977;28;20054;-70
2021/12/02 04:36:37;;;;;;;0.10;0.10;;;;;;;8.98;64.55;97428.53;5008766;28;20046;-69
2021/12/02 04:39:04;;;;;;;0.10;0.10;;;;;;;9.02;64.45;97428.19;5007747;28;20075;-67
2021/12/02 04:41:31;;;;;;;0.43;0.43;;;;;;;9.02;64.29;97430.81;5007033;28;20607;-70
2021/12/02 04:43:58;;;;;;;0.10;0.10;;;;;;;8.98;64.47;97431.19;5007401;28;20057;-70
2021/12/02 04:46:26;;;;;;;0.10;0.10;;;;;;;8.97;64.53;97439.25;5006397;28;20148;-73
2021/12/02 04:48:53;;;;;;;0.10;0.10;;;;;;;8.95;64.43;97439.41;5007872;28;20042;-71
2021/12/02 04:51:20;;;;;;;0.00;0.00;;;;;;;8.94;64.33;97427.22;5007701;28;20046;-67
2021/12/02 04:53:47;;;;;;;0.10;0.10;;;;;;;8.92;64.28;97441.56;5007160;28;20056;-67
2021/12/02 04:56:14;;;;;;;0.10;0.10;;;;;;;8.91;64.20;97448.63;5007292;28;20085;-70
2021/12/02 04:58:41;;;;;;;0.10;0.10;;;;;;;8.86;64.38;97453.59;5007362;28;20065;-67
2021/12/02 05:01:08;;;;;;;0.10;0.10;;;;;;;8.83;64.30;97453.09;5006165;28;20645;-74
2021/12/02 05:03:36;;;;;;;4.95;1.83;;;;;;;8.82;64.39;97448.81;5005712;28;20085;-74
2021/12/02 05:06:03;;;;;;;0.00;0.00;;;;;;;8.82;64.18;97460.16;5007647;28;20121;-72
2021/12/02 05:08:30;;;;;;;0.00;0.00;;;;;;;8.79;63.97;97460.50;5008165;28;20060;-70
2021/12/02 05:10:57;;;;;;;0.35;0.35;;;;;;;8.79;63.88;97468.41;5008647;28;20117;-72
2021/12/02 05:13:24;;;;;;;0.10;0.10;;;;;;;8.77;63.54;97476.47;5007912;28;20076;-69
2021/12/02 05:15:51;;;;;;;0.10;0.10;;;;;;;8.83;63.20;97468.91;5006292;28;20106;-68
2021/12/02 05:18:18;;;;;;;0.00;0.00;;;;;;;8.78;63.19;97467.56;5007708;28;20077;-69
2021/12/02 05:20:48;;;;;;;0.10;0.10;;;;;;;8.75;63.50;97477.59;5007217;28;20092;-71
2021/12/02 05:23:15;;;;;;;0.10;0.10;;;;;;;8.71;63.32;97477.13;5007301;28;20056;-65
2021/12/02 05:25:44;;;;;;;0.10;0.10;;;;;;;8.67;63.22;97488.16;5007656;28;20225;-73
2021/12/02 05:28:15;;;;;;;0.10;0.10;;;;;;;8.63;63.08;97479.78;5006854;28;20054;-70
2021/12/02 05:30:42;;;;;;;0.10;0.10;;;;;;;8.63;62.99;97474.53;5007278;28;20105;-66
2021/12/02 05:33:11;;;;;;;0.10;0.10;;;;;;;8.59;63.13;97484.56;5005729;28;20046;-68
2021/12/02 05:35:40;;;;;;;1.95;1.17;;;;;;;8.58;62.94;97485.53;5006108;28;20105;-77
2021/12/02 05:38:08;;;;;;;0.05;0.05;;;;;;;8.53;62.84;97487.84;5006318;28;20153;-72
2021/12/02 05:40:37;;;;;;;0.10;0.10;;;;;;;8.48;63.07;97499.84;5006960;28;20060;-72
2021/12/02 05:43:05;;;;;;;0.50;0.50;;;;;;;8.46;62.95;97502.63;5006434;28;20057;-68
2021/12/02 05:45:31;;;;;;;0.00;0.00;;;;;;;8.40;62.86;97503.28;5006411;28;20060;-66
2021/12/02 05:47:59;;;;;;;0.00;0.00;;;;;;;8.33;63.08;97504.94;5005317;28;20137;-70
2021/12/02 05:50:26;;;;;;;0.00;0.00;;;;;;;8.28;63.09;97508.03;5005114;28;20052;-70
2021/12/02 05:52:53;;;;;;;0.10;0.10;;;;;;;8.27;62.76;97527.44;5006688;28;20126;-68
2021/12/02 05:55:22;;;;;;;0.10;0.10;;;;;;;8.22;63.16;97535.00;5006400;28;20045;-68
2021/12/02 05:57:49;;;;;;;0.03;0.03;;;;;;;8.19;62.79;97530.91;5004067;28;20077;-68
2021/12/02 06:00:17;;;;;;;0.00;0.00;;;;;;;8.12;63.10;97548.31;5005111;28;20053;-70
2021/12/02 06:02:45;;;;;;;0.10;0.10;;;;;;;8.10;62.98;97552.88;5006578;28;20050;-67
2021/12/02 06:05:16;;;;;;;0.10;0.10;;;;;;;8.08;62.89;97548.78;5004156;28;20054;-70
2021/12/02 06:07:44;;;;;;;0.10;0.10;;;;;;;8.09;62.57;97546.00;5006953;28;20137;-67
2021/12/02 06:10:11;;;;;;;0.10;0.10;;;;;;;8.07;62.67;97560.28;5006266;28;20046;-73
2021/12/02 06:12:41;;;;;;;0.10;0.10;;;;;;;8.04;62.53;97550.91;5005744;28;20049;-74
2021/12/02 06:15:09;;;;;;;0.20;0.20;;;;;;;8.01;62.38;97559.97;5005718;28;20129;-73
2021/12/02 06:17:36;;;;;;;0.10;0.10;;;;;;;7.97;62.41;97576.19;5004000;28;20363;-70
2021/12/02 06:20:05;;;;;;;0.75;0.75;;;;;;;7.96;62.03;97590.31;5004648;28;20042;-69
2021/12/02 06:22:32;;;;;;;0.10;0.10;;;;;;;7.94;61.85;97594.91;5005682;28;20061;-69
2021/12/02 06:25:17;;;;;;;0.00;0.00;;;;;;;7.92;61.72;97600.31;5005251;28;20042;-68
2021/12/02 06:27:47;;;;;;;0.10;0.10;;;;;;;7.88;61.53;97600.81;5004151;28;20050;-68
2021/12/02 06:30:16;;;;;;;0.10;0.10;;;;;;;7.84;61.11;97600.31;5005216;28;20509;-73
2021/12/02 06:32:43;;;;;;;0.13;0.13;;;;;;;7.80;61.50;97599.81;5003775;28;20056;-68
2021/12/02 06:35:11;;;;;;;0.10;0.10;;;;;;;7.74;61.44;97602.22;5002585;28;20133;-68
2021/12/02 06:37:39;;;;;;;0.10;0.10;;;;;;;7.70;61.56;97609.59;5003645;28;20614;-69
2021/12/02 06:40:07;;;;;;;0.10;0.10;;;;;;;7.68;61.28;97611.56;5004269;28;20656;-74
2021/12/02 06:42:34;;;;;;;0.10;0.10;;;;;;;7.66;61.12;97616.16;5007845;28;20648;-69
2021/12/02 06:45:03;;;;;;;0.10;0.10;;;;;;;7.64;60.96;97618.13;5003894;28;20054;-68
2021/12/02 06:47:32;;;;;;;0.10;0.10;;;;;;;7.61;61.15;97632.38;5002112;28;20054;-68
2021/12/02 06:50:02;;;;;;;0.10;0.10;;;;;;;7.61;60.79;97621.06;5002549;28;20497;-68
2021/12/02 06:52:31;;;;;;;0.10;0.10;;;;;;;7.59;60.93;97618.59;5006883;28;20123;-70
2021/12/02 06:54:58;;;;;;;0.10;0.10;;;;;;;7.58;60.95;97611.72;5004749;28;20050;-68
2021/12/02 06:57:25;;;;;;;0.10;0.10;;;;;;;7.57;61.08;97623.19;5006813;28;20049;-67
2021/12/02 06:59:53;;;;;;;0.10;0.10;;;;;;;7.54;61.18;97615.59;5007290;28;20088;-68
2021/12/02 07:02:21;;;;;;;4.72;2.20;;;;;;;7.51;61.60;97615.09;5008121;28;20142;-70
2021/12/02 07:04:50;;;;;;;7.65;3.47;;;;;;;7.51;60.91;97609.84;4999708;28;20237;-71
2021/12/02 07:07:17;;;;;;;12.70;5.70;;;;;;;7.54;61.43;97609.53;5003542;28;20603;-71
2021/12/02 07:09:44;;;;;;;8.82;4.03;;;;;;;7.50;61.61;97619.53;5005253;28;20394;-75
2021/12/02 07:12:12;;;;;;;7.38;3.70;;;;;;;7.49;61.91;97603.94;5004018;28;20477;-68
2021/12/02 07:14:39;;;;;;;6.53;2.50;;;;;;;7.52;62.15;97619.38;5002756;28;20049;-68
2021/12/02 07:17:07;;;;;;;4.10;2.47;;;;;;;7.56;61.72;97633.84;5001799;28;20089;-70
2021/12/02 07:19:39;;;;;;;8.23;3.53;;;;;;;7.56;61.25;97624.19;5003736;28;20528;-68
2021/12/02 07:22:06;;;;;;;6.70;3.00;;;;;;;7.61;61.01;97636.81;5009407;28;20049;-75
2021/12/02 07:24:33;;;;;;;7.45;3.13;;;;;;;7.60;61.80;97632.56;5007106;28;20054;-74
2021/12/02 07:27:00;;;;;;;10.02;4.22;;;;;;;7.62;61.56;97638.47;5002301;28;20046;-71
2021/12/02 07:29:27;;;;;;;5.97;2.60;;;;;;;7.63;61.88;97640.13;4988128;28;20138;-71
2021/12/02 07:31:55;;;;;;;6.18;2.55;;;;;;;7.68;61.75;97643.09;4981127;28;20069;-74
2021/12/02 07:34:25;;;;;;;3.63;2.63;;;;;;;7.72;61.81;97641.78;4980169;28;20053;-71
2021/12/02 07:36:56;;;;;;;3.20;1.83;;;;;;;7.76;61.50;97637.91;4982100;28;20666;-73
2021/12/02 07:39:24;;;;;;;7.88;3.38;;;;;;;7.76;61.41;97651.03;4980288;28;20053;-71
2021/12/02 07:41:51;;;;;;;10.27;3.40;;;;;;;7.79;61.45;97642.81;4981556;28;20088;-72
2021/12/02 07:44:19;;;;;;;7.82;3.00;;;;;;;7.81;61.51;97646.13;4981375;28;20060;-74
2021/12/02 07:46:46;;;;;;;10.35;3.40;;;;;;;7.86;60.92;97658.78;4980382;28;20080;-72
2021/12/02 07:49:14;;;;;;;12.93;6.10;;;;;;;7.84;60.33;97658.94;4981039;28;20050;-72
2021/12/02 07:51:44;;;;;;;6.97;3.58;;;;;;;7.91;60.89;97648.63;4980301;28;20054;-71
2021/12/02 07:54:13;;;;;;;9.70;3.65;;;;;;;7.92;60.76;97652.88;4980650;28;20054;-70
2021/12/02 07:56:40;;;;;;;5.55;2.17;;;;;;;7.95;60.42;97649.13;4979479;28;20382;-69
2021/12/02 07:59:09;;;;;;;7.38;3.58;;;;;;;7.96;60.49;97674.41;4979617;28;20078;-67
2021/12/02 08:01:36;;;;;;;9.65;5.20;;;;;;;7.99;60.67;97684.63;4980790;28;20054;-67
2021/12/02 08:04:03;;;;;;;4.25;2.80;;;;;;;8.01;60.50;97687.91;4979543;28;20050;-69
2021/12/02 08:06:30;;;;;;;5.07;2.33;;;;;;;8.04;59.65;97677.09;4980707;28;20058;-70
2021/12/02 08:08:57;;;;;;;5.13;2.17;;;;;;;8.06;59.43;97669.03;4980458;28;20046;-68
2021/12/02 08:11:26;;;;;;;6.95;3.90;;;;;;;8.11;59.09;97680.72;4982537;28;20122;-71
2021/12/02 08:13:54;;;;;;;5.25;2.42;;;;;;;8.13;59.63;97689.28;4984052;28;20061;-73
2021/12/02 08:16:21;;;;;;;7.85;4.05;;;;;;;8.16;59.72;97715.25;4981517;28;20094;-69
2021/12/02 08:18:48;;;;;;;10.00;3.88;;;;;;;8.17;58.89;97695.03;4980301;28;20053;-70
2021/12/02 08:21:15;;;;;;;11.70;3.75;;;;;;;8.21;58.75;97699.84;4980700;28;20097;-67
2021/12/02 08:23:42;;;;;;;6.35;3.00;;;;;;;8.22;58.57;97709.34;4980848;28;20141;-69
2021/12/02 08:26:12;;;;;;;4.40;2.17;;;;;;;8.24;57.98;97712.66;4981206;28;20051;-68
2021/12/02 08:28:40;;;;;;;6.10;3.03;;;;;;;8.29;58.74;97717.44;4978698;28;20054;-70
2021/12/02 08:31:07;;;;;;;6.05;2.53;;;;;;;8.32;58.28;97714.50;4979173;28;20132;-70
2021/12/02 08:33:36;;;;;;;11.15;2.42;;;;;;;8.37;58.62;97719.25;4977311;28;20097;-71
2021/12/02 08:36:04;;;;;;;5.18;2.20;;;;;;;8.41;58.88;97734.59;4978919;28;20046;-70
2021/12/02 08:38:33;;;;;;;2.50;2.08;;;;;;;8.45;58.75;97739.56;4980191;28;20120;-69
2021/12/02 08:41:00;;;;;;;5.85;2.17;;;;;;;8.50;58.47;97721.47;4979065;28;20136;-72
2021/12/02 08:43:28;;;;;;;5.60;2.88;;;;;;;8.51;57.20;97750.25;4977612;28;20057;-72
2021/12/02 08:45:57;;;;;;;5.63;2.85;;;;;;;8.49;55.54;97749.59;4979822;28;20621;-71
2021/12/02 08:48:24;;;;;;;1.95;1.65;;;;;;;8.54;56.40;97749.94;4979535;28;20061;-73
2021/12/02 08:50:51;;;;;;;4.78;1.67;;;;;;;8.57;55.32;97768.03;4976591;28;20681;-72
2021/12/02 08:53:18;;;;;;;4.22;2.38;;;;;;;8.52;50.36;97741.38;4981562;28;20061;-72
2021/12/02 08:55:45;;;;;;;5.10;2.17;;;;;;;8.49;48.17;97768.00;4981221;28;20117;-70
2021/12/02 08:58:12;;;;;;;4.22;1.95;;;;;;;8.53;48.30;97763.25;4981290;28;20061;-71
2021/12/02 09:00:40;;;;;;;5.88;2.38;;;;;;;8.59;48.82;97773.16;4977429;28;20125;-74
2021/12/02 09:03:10;;;;;;;4.65;2.28;;;;;;;8.66;49.25;97758.38;4978453;28;20647;-71
2021/12/02 09:05:38;;;;;;;4.70;2.30;;;;;;;8.73;49.42;97772.53;4981818;28;20505;-71
2021/12/02 09:08:05;;;;;;;5.07;2.47;;;;;;;8.83;49.45;97769.75;4983017;28;20050;-70
2021/12/02 09:10:33;;;;;;;10.07;5.15;;;;;;;9.02;48.62;97768.66;4982428;28;20046;-72
2021/12/02 09:13:03;;;;;;;9.13;3.92;;;;;;;9.28;48.67;97768.50;4973458;28;20126;-70
2021/12/02 09:15:30;;;;;;;8.57;4.70;;;;;;;9.40;48.41;97766.38;4972093;28;20151;-71
2021/12/02 09:17:57;;;;;;;9.00;3.45;;;;;;;9.59;48.57;97759.91;4971012;28;20126;-71
2021/12/02 09:20:25;;;;;;;5.45;2.17;;;;;;;9.72;48.32;97776.06;4974067;28;20057;-71
2021/12/02 09:22:52;;;;;;;5.13;3.17;;;;;;;9.86;48.45;97758.72;4971143;28;20442;-72
2021/12/02 09:25:19;;;;;;;4.03;1.90;;;;;;;9.99;48.16;97757.38;4970856;28;20046;-71
2021/12/02 09:27:47;;;;;;;4.68;2.50;;;;;;;10.13;47.88;97778.59;4972582;28;20062;-72
2021/12/02 09:30:15;;;;;;;4.68;2.00;;;;;;;9.82;46.51;97759.25;4970641;28;20137;-70
2021/12/02 09:32:43;;;;;;;3.38;1.60;;;;;;;9.64;47.10;97762.06;4970102;28;20106;-72
2021/12/02 09:35:11;;;;;;;3.42;1.70;;;;;;;9.48;47.52;97771.63;4969258;28;20138;-71
2021/12/02 09:37:39;;;;;;;5.68;2.47;;;;;;;9.43;48.20;97770.47;4971870;28;20048;-72
2021/12/02 09:40:09;;;;;;;7.55;3.13;;;;;;;9.50;48.05;97767.00;4969891;28;20458;-68
2021/12/02 09:42:36;;;;;;;4.97;2.72;;;;;;;9.59;48.24;97780.19;4971512;28;20090;-70
2021/12/02 09:45:04;;;;;;;6.45;2.83;;;;;;;9.45;45.54;97753.50;4970593;28;20058;-70
2021/12/02 09:47:33;;;;;;;6.55;4.25;;;;;;;9.30;46.45;97766.50;4970746;28;20047;-71
2021/12/02 09:50:04;;;;;;;8.55;3.20;;;;;;;9.30;46.97;97761.25;4969801;28;20414;-72
2021/12/02 09:52:34;;;;;;;8.55;3.97;;;;;;;9.31;46.62;97768.19;4970367;28;20120;-73
2021/12/02 09:55:06;;;;;;;7.88;3.78;;;;;;;9.25;46.18;97768.81;4969768;28;20141;-70
2021/12/02 09:57:39;;;;;;;10.02;3.78;;;;;;;9.22;46.42;97765.69;4969323;28;20068;-70
2021/12/02 10:00:14;;;;;;;7.03;2.65;;;;;;;9.22;46.62;97755.16;4953191;28;20479;-74
2021/12/02 10:02:50;;;;;;;7.53;2.92;;;;;;;9.23;46.37;97760.25;4971382;28;20043;-74
2021/12/02 10:05:27;;;;;;;7.82;3.30;;;;;;;9.23;45.86;97772.63;4971251;28;20066;-75
2021/12/02 10:08:00;;;;;;;3.08;1.38;;;;;;;9.18;45.77;97779.19;4969557;28;20627;-71
2021/12/02 10:10:32;;;;;;;2.55;1.58;;;;;;;9.15;45.94;97778.69;4970077;28;20126;-71
2021/12/02 10:13:15;;;;;;;7.85;3.22;;;;;;;9.13;45.97;97780.69;4986994;28;20073;-71
2021/12/02 10:15:51;;;;;;;4.10;2.83;;;;;;;9.08;45.25;97781.16;4968930;28;20107;-73
2021/12/02 10:18:24;;;;;;;4.93;2.35;;;;;;;9.01;44.83;97769.63;4969476;28;20042;-74
2021/12/02 10:20:52;;;;;;;6.55;3.03;;;;;;;9.08;45.22;97782.97;4969736;28;20042;-75
2021/12/02 10:23:23;;;;;;;5.70;2.83;;;;;;;9.15;45.13;97779.50;4974265;28;20054;-72
2021/12/02 10:25:55;;;;;;;6.30;2.53;;;;;;;9.30;45.42;97782.31;4970769;28;20510;-70
2021/12/02 10:28:22;;;;;;;9.23;3.58;;;;;;;9.34;45.16;97780.19;4968613;28;20060;-73
2021/12/02 10:30:53;;;;;;;5.50;3.38;;;;;;;9.34;45.24;97791.53;4968912;28;20054;-71
2021/12/02 10:33:30;;;;;;;10.63;3.40;;;;;;;9.21;44.82;97791.22;4968974;28;20048;-71
2021/12/02 10:35:57;;;;;;;5.68;3.40;;;;;;;9.25;45.35;97804.88;4968622;28;20121;-71
2021/12/02 10:38:36;;;;;;;5.25;2.00;;;;;;;9.17;44.62;97793.34;4969681;28;20039;-71
2021/12/02 10:41:08;;;;;;;6.78;2.83;;;;;;;9.12;45.36;97786.91;4970310;28;20253;-72
2021/12/02 10:43:38;;;;;;;10.60;5.15;;;;;;;9.16;45.36;97788.22;4967390;28;20108;-70
2021/12/02 10:46:16;;;;;;;6.45;2.92;;;;;;;9.22;45.13;97798.13;4969952;28;20057;-70
2021/12/02 10:48:48;;;;;;;3.45;1.88;;;;;;;9.23;44.84;97806.84;4970165;28;20047;-71
2021/12/02 10:51:38;;;;;;;5.05;2.67;;;;;;;9.21;44.81;97795.66;4968665;28;20760;-75
2021/12/02 10:54:12;;;;;;;6.00;2.80;;;;;;;9.12;45.07;97803.53;4965253;28;20055;-71
2021/12/02 10:56:43;;;;;;;7.70;3.17;;;;;;;9.09;44.83;97816.19;4959797;28;20053;-71
2021/12/02 10:59:27;;;;;;;5.68;2.85;;;;;;;9.01;44.17;97797.78;4960906;28;20047;-70
2021/12/02 11:01:59;;;;;;;5.93;3.42;;;;;;;8.98;43.20;97809.44;4969890;28;20168;-72
2021/12/02 11:04:26;;;;;;;6.70;2.85;;;;;;;8.93;43.61;97806.44;4969652;28;20054;-74
2021/12/02 11:07:00;;;;;;;4.50;2.63;;;;;;;9.05;43.99;97799.09;4970998;28;20047;-70
2021/12/02 11:09:28;;;;;;;8.75;3.33;;;;;;;9.04;43.82;97797.44;4969770;28;20146;-73
2021/12/02 11:12:08;;;;;;;7.15;2.30;;;;;;;9.14;43.91;97795.47;4968380;28;20064;-73
2021/12/02 11:14:36;;;;;;;2.92;1.75;;;;;;;9.25;43.91;97800.41;4969252;28;20109;-71
2021/12/02 11:17:11;;;;;;;5.55;2.20;;;;;;;9.31;43.40;97805.06;4968396;28;20051;-72
2021/12/02 11:19:38;;;;;;;6.80;2.15;;;;;;;9.38;43.51;97803.41;4970310;28;20588;-74
2021/12/02 11:22:07;;;;;;;7.93;4.20;;;;;;;9.43;43.56;97797.63;4967090;28;20057;-73
2021/12/02 11:24:35;;;;;;;2.83;1.65;;;;;;;9.18;41.39;97799.44;4969998;28;20426;-68
2021/12/02 11:27:14;;;;;;;8.48;2.60;;;;;;;9.12;42.79;97800.91;4967407;28;20079;-70
2021/12/02 11:29:59;;;;;;;7.43;2.60;;;;;;;9.06;42.99;97791.03;4969573;28;20125;-71
2021/12/02 11:32:37;;;;;;;9.90;4.68;;;;;;;8.97;42.39;97813.06;4970668;28;20074;-71
2021/12/02 11:35:20;;;;;;;2.38;1.35;;;;;;;8.94;41.86;97829.19;4967099;28;20467;-69
2021/12/02 11:37:49;;;;;;;6.13;2.47;;;;;;;8.91;41.91;97809.28;4967654;28;20130;-76
2021/12/02 11:40:19;;;;;;;7.03;3.28;;;;;;;8.87;41.53;97831.63;4972175;28;20101;-70
2021/12/02 11:42:50;;;;;;;6.75;3.50;;;;;;;8.90;41.83;97831.31;4971103;28;20050;-73
2021/12/02 11:45:18;;;;;;;7.55;2.80;;;;;;;8.97;40.97;97819.16;4970203;28;20058;-72
2021/12/02 11:47:47;;;;;;;10.55;4.10;;;;;;;9.05;40.69;97831.50;4968054;28;20046;-75
2021/12/02 11:50:16;;;;;;;6.68;2.65;;;;;;;9.07;40.02;97842.69;4971987;28;20046;-75
2021/12/02 11:52:44;;;;;;;5.10;2.08;;;;;;;9.14;40.24;97835.78;4970166;28;20533;-72
2021/12/02 11:55:15;;;;;;;9.43;2.70;;;;;;;9.19;40.78;97862.47;4970989;28;20081;-72
2021/12/02 11:57:42;;;;;;;6.18;2.38;;;;;;;9.09;40.55;97847.81;4967487;28;20566;-73
2021/12/02 12:00:15;;;;;;;4.25;2.50;;;;;;;8.92;39.24;97842.50;4969646;28;20059;-70
2021/12/02 12:02:49;;;;;;;4.85;1.95;;;;;;;8.94;39.96;97858.94;4974899;28;20035;-69
2021/12/02 12:05:22;;;;;;;3.90;2.30;;;;;;;8.92;40.19;97866.19;4972469;28;20047;-73
2021/12/02 12:07:52;;;;;;;3.50;2.13;;;;;;;8.80;40.54;97856.94;4955336;28;20042;-76
2021/12/02 12:10:34;;;;;;;5.47;2.17;;;;;;;8.74;40.95;97868.09;4966689;28;20149;-70
2021/12/02 12:13:20;;;;;;;5.13;2.30;;;;;;;8.69;40.63;97863.28;4972797;28;20665;-73
2021/12/02 12:15:51;;;;;;;1.58;1.15;;;;;;;8.72;39.95;97856.91;4970486;28;20630;-74
2021/12/02 12:18:35;;;;;;;7.80;2.00;;;;;;;8.86;40.14;97869.47;4969638;28;20130;-72
2021/12/02 12:21:05;;;;;;;3.78;1.58;;;;;;;8.92;40.20;97866.19;4974258;28;20058;-71
2021/12/02 12:23:42;;;;;;;2.13;1.00;;;;;;;9.02;40.17;97888.91;4974099;28;20098;-71
2021/12/02 12:26:26;;;;;;;6.85;2.90;;;;;;;9.09;40.06;97879.41;4975047;28;20051;-70
2021/12/02 12:29:27;;;;;;;4.60;2.45;;;;;;;8.94;39.08;97877.38;4978267;28;20668;-71
2021/12/02 12:32:44;;;;;;;4.97;2.70;;;;;;;8.99;39.45;97869.81;4975896;28;20053;-71
2021/12/02 12:35:20;;;;;;;5.95;3.15;;;;;;;9.18;39.74;97868.75;4973274;28;20054;-72
2021/12/02 12:40:46;;;;;;;5.32;3.13;;;;;;;9.16;39.54;97888.31;4934855;29;20091;-74
2021/12/02 12:43:22;;;;;;;7.75;2.83;;;;;;;9.18;39.83;97895.06;4933442;29;20187;-71
2021/12/02 12:45:50;;;;;;;6.93;3.20;;;;;;;9.07;39.55;97897.16;4935095;29;20055;-71
2021/12/02 12:48:30;;;;;;;5.43;2.30;;;;;;;8.95;39.59;97902.72;4934331;29;20583;-73
2021/12/02 12:51:15;;;;;;;7.13;3.03;;;;;;;8.91;38.92;97919.00;4935415;29;20062;-70
2021/12/02 12:53:44;;;;;;;4.57;1.87;;;;;;;8.86;38.40;97906.31;4934531;29;20043;-70
2021/12/02 12:56:13;;;;;;;7.47;3.65;;;;;;;8.90;38.92;97917.34;4934462;29;20110;-71
2021/12/02 12:58:58;;;;;;;5.40;2.20;;;;;;;8.86;37.58;97916.00;4934784;29;20122;-71
2021/12/02 13:01:27;;;;;;;7.15;2.17;;;;;;;8.77;38.25;97912.53;4928439;29;20052;-71
2021/12/02 13:04:17;;;;;;;6.10;2.00;;;;;;;8.64;38.20;97938.44;4927640;29;20051;-69
2021/12/02 13:07:18;;;;;;;12.07;4.68;;;;;;;8.58;38.88;97934.63;4929230;29;20044;-69
2021/12/02 13:09:54;;;;;;;6.32;3.17;;;;;;;8.50;38.72;97927.50;4854869;29;20057;-73
2021/12/02 13:12:27;;;;;;;6.28;3.20;;;;;;;8.42;38.94;97937.97;4854444;29;20049;-73
2021/12/02 13:14:55;;;;;;;6.72;2.80;;;;;;;8.40;39.37;97917.03;4856313;29;20135;-69
2021/12/02 13:17:43;;;;;;;8.82;4.40;;;;;;;8.37;39.56;97927.06;4873562;29;20158;-70
2021/12/02 13:20:41;;;;;;;8.57;3.60;;;;;;;8.32;40.10;97932.78;4890478;29;20131;-74
2021/12/02 13:23:29;;;;;;;5.25;3.13;;;;;;;8.31;40.35;97928.50;4892834;29;20107;-70
2021/12/02 13:25:59;;;;;;;9.93;3.85;;;;;;;8.24;40.52;97940.59;4892526;29;20453;-73
2021/12/02 13:28:29;;;;;;;13.70;5.97;;;;;;;8.24;40.98;97932.72;4889767;29;20155;-71
2021/12/02 13:30:58;;;;;;;8.75;3.33;;;;;;;8.20;41.09;97932.19;4890155;29;20177;-70
2021/12/02 13:33:37;;;;;;;6.05;3.08;;;;;;;8.15;40.85;97939.72;4888019;29;20055;-71
2021/12/02 13:36:06;;;;;;;2.58;1.88;;;;;;;8.13;41.25;97943.50;4894655;29;20048;-71
2021/12/02 13:38:33;;;;;;;9.90;3.53;;;;;;;8.09;41.60;97940.34;4888721;29;20060;-68
2021/12/02 13:41:12;;;;;;;10.52;3.63;;;;;;;8.07;42.00;97957.22;4891174;29;20062;-71
2021/12/02 13:44:10;;;;;;;6.18;3.85;;;;;;;7.96;41.36;97955.66;4892400;29;20040;-72
2021/12/02 13:46:43;;;;;;;11.60;3.75;;;;;;;7.87;41.68;97962.66;4903338;29;20048;-71
2021/12/02 13:49:13;;;;;;;7.00;3.17;;;;;;;7.79;41.74;97965.22;4911423;29;20056;-72
2021/12/02 13:54:31;;;;;;;9.30;4.90;;;;;;;7.64;42.74;97972.78;4911194;29;20056;-71
2021/12/02 13:57:00;;;;;;;7.90;3.65;;;;;;;7.56;42.99;97965.66;4908127;29;20134;-72
2021/12/02 13:59:38;;;;;;;10.05;4.10;;;;;;;7.50;42.87;97965.41;4906355;29;20047;-72
2021/12/02 14:02:06;;;;;;;7.90;2.75;;;;;;;7.46;42.61;97975.38;4910060;29;20058;-72
2021/12/02 14:04:44;;;;;;;9.45;3.42;;;;;;;7.34;42.43;97971.31;4908390;29;20048;-72
2021/12/02 14:07:19;;;;;;;6.70;2.65;;;;;;;7.31;42.84;97980.31;4904126;29;20050;-74
2021/12/02 14:09:52;;;;;;;12.27;4.70;;;;;;;7.28;42.98;97991.09;4908985;29;20152;-71
2021/12/02 14:12:22;;;;;;;7.63;3.67;;;;;;;7.16;42.79;97985.22;4908539;29;20162;-71
2021/12/02 14:15:00;;;;;;;15.60;7.43;;;;;;;7.14;43.07;97986.34;4905123;29;20128;-71
2021/12/02 14:17:28;;;;;;;8.07;4.55;;;;;;;7.07;43.25;97993.97;4905425;29;20052;-74
2021/12/02 14:20:04;;;;;;;7.40;3.92;;;;;;;7.00;43.73;97998.94;4908649;29;20046;-72
2021/12/02 14:22:33;;;;;;;10.25;4.68;;;;;;;6.98;43.58;98003.50;4954416;28;20046;-72
2021/12/02 14:25:01;;;;;;;15.27;6.15;;;;;;;6.93;43.79;98004.91;4993545;28;20100;-75
2021/12/02 14:27:28;;;;;;;18.92;7.72;;;;;;;6.87;43.83;98017.63;4998052;28;20185;-68
2021/12/02 14:30:09;;;;;;;14.48;6.07;;;;;;;6.83;44.09;98011.03;4980868;28;20050;-70
2021/12/02 14:32:36;;;;;;;11.52;6.13;;;;;;;6.74;44.22;98019.75;4979218;28;20068;-71